sensor_id;sensor_type;location;lat;lon;timestamp;pressure;altitude;pressure_sealevel;temperature;humidity
74230;BME280;62589;12.568;99.958;2023-04-09T00:01:38;101067.47;;;34.37;54.48
74230;BME280;62589;12.568;99.958;2023-04-09T00:04:05;101063.88;;;34.36;54.70
74230;BME280;62589;12.568;99.958;2023-04-09T00:06:31;101071.84;;;34.38;54.20
74230;BME280;62589;12.568;99.958;2023-04-09T00:08:57;101071.44;;;34.39;54.38
74230;BME280;62589;12.568;99.958;2023-04-09T00:11:24;101076.25;;;34.42;54.15
74230;BME280;62589;12.568;99.958;2023-04-09T00:13:50;101073.88;;;34.44;53.90
74230;BME280;62589;12.568;99.958;2023-04-09T00:16:17;101083.06;;;34.49;54.03
74230;BME280;62589;12.568;99.958;2023-04-09T00:18:43;101086.63;;;34.53;53.89
74230;BME280;62589;12.568;99.958;2023-04-09T00:21:10;101093.03;;;34.57;53.71
74230;BME280;62589;12.568;99.958;2023-04-09T00:23:37;101093.44;;;34.62;53.48
74230;BME280;62589;12.568;99.958;2023-04-09T00:26:04;101099.44;;;34.68;53.32
74230;BME280;62589;12.568;99.958;2023-04-09T00:28:30;101099.44;;;34.71;53.33
74230;BME280;62589;12.568;99.958;2023-04-09T00:30:57;101113.00;;;34.76;52.79
74230;BME280;62589;12.568;99.958;2023-04-09T00:33:23;101119.03;;;34.82;52.71
74230;BME280;62589;12.568;99.958;2023-04-09T00:35:50;101125.44;;;34.90;52.74
74230;BME280;62589;12.568;99.958;2023-04-09T00:38:17;101127.03;;;34.94;52.20
74230;BME280;62589;12.568;99.958;2023-04-09T01:04:23;101146.69;;;35.55;49.21
74230;BME280;62589;12.568;99.958;2023-04-09T01:07:24;101147.09;;;35.64;49.50
74230;BME280;62589;12.568;99.958;2023-04-09T01:10:15;101150.31;;;35.73;49.45
74230;BME280;62589;12.568;99.958;2023-04-09T01:15:39;101155.09;;;35.72;45.12
74230;BME280;62589;12.568;99.958;2023-04-09T01:18:21;101169.47;;;35.74;44.69
74230;BME280;62589;12.568;99.958;2023-04-09T01:23:46;101175.47;;;35.87;45.05
74230;BME280;62589;12.568;99.958;2023-04-09T01:26:52;101172.69;;;35.87;45.02
74230;BME280;62589;12.568;99.958;2023-04-09T01:29:20;101179.88;;;35.92;45.03
74230;BME280;62589;12.568;99.958;2023-04-09T01:31:47;101191.84;;;35.96;44.75
74230;BME280;62589;12.568;99.958;2023-04-09T01:34:15;101185.03;;;36.04;44.42
74230;BME280;62589;12.568;99.958;2023-04-09T01:36:51;101179.44;;;36.04;44.55
74230;BME280;62589;12.568;99.958;2023-04-09T01:39:20;101187.81;;;36.11;45.03
74230;BME280;62589;12.568;99.958;2023-04-09T01:41:49;101179.00;;;36.20;44.50
74230;BME280;62589;12.568;99.958;2023-04-09T01:44:16;101189.78;;;36.21;43.22
74230;BME280;62589;12.568;99.958;2023-04-09T01:46:46;101200.22;;;36.13;43.09
74230;BME280;62589;12.568;99.958;2023-04-09T01:49:14;101193.41;;;36.25;43.21
74230;BME280;62589;12.568;99.958;2023-04-09T01:51:41;101203.00;;;36.28;42.98
74230;BME280;62589;12.568;99.958;2023-04-09T01:54:08;101195.00;;;36.37;42.91
74230;BME280;62589;12.568;99.958;2023-04-09T01:56:45;101194.56;;;36.45;43.22
74230;BME280;62589;12.568;99.958;2023-04-09T01:59:12;101202.16;;;36.48;43.02
74230;BME280;62589;12.568;99.958;2023-04-09T02:04:34;101196.91;;;36.65;42.50
74230;BME280;62589;12.568;99.958;2023-04-09T02:07:08;101205.69;;;36.67;42.30
74230;BME280;62589;12.568;99.958;2023-04-09T02:09:36;101202.50;;;36.68;42.33
74230;BME280;62589;12.568;99.958;2023-04-09T02:12:06;101208.91;;;36.72;42.76
74230;BME280;62589;12.568;99.958;2023-04-09T02:14:36;101199.31;;;36.73;42.46
74230;BME280;62589;12.568;99.958;2023-04-09T02:17:03;101207.31;;;36.75;44.33
74230;BME280;62589;12.568;99.958;2023-04-09T02:19:43;101203.66;;;36.85;44.79
74230;BME280;62589;12.568;99.958;2023-04-09T02:22:10;101210.84;;;36.86;44.89
74230;BME280;62589;12.568;99.958;2023-04-09T02:24:37;101217.63;;;36.92;44.77
74230;BME280;62589;12.568;99.958;2023-04-09T02:27:06;101203.63;;;36.92;45.00
74230;BME280;62589;12.568;99.958;2023-04-09T02:29:32;101214.41;;;36.97;44.60
74230;BME280;62589;12.568;99.958;2023-04-09T02:31:59;101215.56;;;37.03;43.93
74230;BME280;62589;12.568;99.958;2023-04-09T02:34:26;101214.78;;;36.99;44.24
74230;BME280;62589;12.568;99.958;2023-04-09T02:36:52;101209.16;;;37.06;44.17
74230;BME280;62589;12.568;99.958;2023-04-09T02:39:19;101208.72;;;37.19;44.36
74230;BME280;62589;12.568;99.958;2023-04-09T02:41:45;101201.09;;;37.15;43.32
74230;BME280;62589;12.568;99.958;2023-04-09T02:44:11;101198.28;;;37.23;44.87
74230;BME280;62589;12.568;99.958;2023-04-09T02:46:40;101203.06;;;37.29;44.46
74230;BME280;62589;12.568;99.958;2023-04-09T02:49:07;101204.59;;;37.37;44.05
74230;BME280;62589;12.568;99.958;2023-04-09T02:51:36;101196.63;;;37.36;44.75
74230;BME280;62589;12.568;99.958;2023-04-09T02:54:03;101194.94;;;37.42;44.35
74230;BME280;62589;12.568;99.958;2023-04-09T02:56:29;101192.16;;;37.42;45.09
74230;BME280;62589;12.568;99.958;2023-04-09T02:58:56;101189.31;;;37.49;45.06
74230;BME280;62589;12.568;99.958;2023-04-09T03:01:22;101203.28;;;37.56;44.88
74230;BME280;62589;12.568;99.958;2023-04-09T03:03:48;101190.00;;;37.67;44.36
74230;BME280;62589;12.568;99.958;2023-04-09T03:06:15;101180.41;;;37.65;44.46
74230;BME280;62589;12.568;99.958;2023-04-09T03:08:43;101176.00;;;37.67;43.89
74230;BME280;62589;12.568;99.958;2023-04-09T03:11:09;101185.50;;;37.80;43.91
74230;BME280;62589;12.568;99.958;2023-04-09T03:13:35;101180.69;;;37.81;43.47
74230;BME280;62589;12.568;99.958;2023-04-09T03:16:02;101177.84;;;37.84;43.86
74230;BME280;62589;12.568;99.958;2023-04-09T03:18:28;101187.41;;;37.91;43.39
74230;BME280;62589;12.568;99.958;2023-04-09T03:20:55;101188.59;;;37.90;44.19
74230;BME280;62589;12.568;99.958;2023-04-09T03:23:21;101179.00;;;37.91;43.87
74230;BME280;62589;12.568;99.958;2023-04-09T03:25:47;101176.19;;;37.91;43.95
74230;BME280;62589;12.568;99.958;2023-04-09T03:28:14;101174.22;;;37.88;43.43
74230;BME280;62589;12.568;99.958;2023-04-09T03:30:40;101177.00;;;37.88;43.59
74230;BME280;62589;12.568;99.958;2023-04-09T03:33:07;101175.53;;;37.76;42.30
74230;BME280;62589;12.568;99.958;2023-04-09T03:35:33;101167.00;;;37.87;42.94
74230;BME280;62589;12.568;99.958;2023-04-09T03:37:59;101166.59;;;37.88;43.50
74230;BME280;62589;12.568;99.958;2023-04-09T03:40:26;101168.16;;;37.93;43.88
74230;BME280;62589;12.568;99.958;2023-04-09T03:42:52;101159.44;;;37.83;43.86
74230;BME280;62589;12.568;99.958;2023-04-09T03:45:18;101164.94;;;37.94;44.76
74230;BME280;62589;12.568;99.958;2023-04-09T03:47:45;101158.09;;;37.99;44.77
74230;BME280;62589;12.568;99.958;2023-04-09T03:50:11;101165.25;;;37.59;45.45
74230;BME280;62589;12.568;99.958;2023-04-09T03:52:38;101155.13;;;37.75;45.34
74230;BME280;62589;12.568;99.958;2023-04-09T03:55:05;101151.50;;;37.78;45.36
74230;BME280;62589;12.568;99.958;2023-04-09T03:57:31;101148.94;;;37.91;44.50
74230;BME280;62589;12.568;99.958;2023-04-09T03:59:57;101148.94;;;37.95;45.10
74230;BME280;62589;12.568;99.958;2023-04-09T04:02:24;101149.69;;;37.99;45.51
74230;BME280;62589;12.568;99.958;2023-04-09T04:04:51;101161.31;;;37.97;45.25
74230;BME280;62589;12.568;99.958;2023-04-09T04:07:18;101149.69;;;37.99;45.29
74230;BME280;62589;12.568;99.958;2023-04-09T04:09:44;101155.22;;;38.06;46.09
74230;BME280;62589;12.568;99.958;2023-04-09T04:12:10;101157.94;;;38.16;45.12
74230;BME280;62589;12.568;99.958;2023-04-09T04:14:37;101159.22;;;38.05;45.38
74230;BME280;62589;12.568;99.958;2023-04-09T04:17:03;101155.19;;;38.09;45.41
74230;BME280;62589;12.568;99.958;2023-04-09T04:19:29;101153.19;;;38.06;45.98
74230;BME280;62589;12.568;99.958;2023-04-09T04:21:56;101143.56;;;38.11;45.51
74230;BME280;62589;12.568;99.958;2023-04-09T04:24:22;101142.78;;;38.07;44.43
74230;BME280;62589;12.568;99.958;2023-04-09T04:26:48;101135.94;;;38.15;45.07
74230;BME280;62589;12.568;99.958;2023-04-09T04:29:15;101134.72;;;38.16;45.90
74230;BME280;62589;12.568;99.958;2023-04-09T04:31:41;101122.22;;;38.24;46.32
74230;BME280;62589;12.568;99.958;2023-04-09T04:34:08;101126.72;;;38.14;45.33
74230;BME280;62589;12.568;99.958;2023-04-09T04:36:35;101122.75;;;38.12;44.98
74230;BME280;62589;12.568;99.958;2023-04-09T04:39:02;101135.47;;;38.20;44.56
74230;BME280;62589;12.568;99.958;2023-04-09T04:41:29;101115.53;;;38.07;42.41
74230;BME280;62589;12.568;99.958;2023-04-09T04:43:55;101118.34;;;38.07;43.59
74230;BME280;62589;12.568;99.958;2023-04-09T04:46:22;101096.22;;;38.20;43.73
74230;BME280;62589;12.568;99.958;2023-04-09T04:48:48;101097.50;;;38.12;45.45
74230;BME280;62589;12.568;99.958;2023-04-09T04:51:14;101097.88;;;38.14;45.37
74230;BME280;62589;12.568;99.958;2023-04-09T04:53:41;101092.22;;;38.21;44.73
74230;BME280;62589;12.568;99.958;2023-04-09T04:56:15;101087.94;;;38.06;43.41
74230;BME280;62589;12.568;99.958;2023-04-09T04:58:42;101078.63;;;38.16;43.92
74230;BME280;62589;12.568;99.958;2023-04-09T05:01:08;101086.97;;;38.23;43.55
74230;BME280;62589;12.568;99.958;2023-04-09T05:03:35;101079.09;;;38.11;42.58
74230;BME280;62589;12.568;99.958;2023-04-09T05:06:01;101076.28;;;38.11;43.26
74230;BME280;62589;12.568;99.958;2023-04-09T05:08:28;101077.44;;;38.17;43.92
74230;BME280;62589;12.568;99.958;2023-04-09T05:10:54;101074.28;;;38.08;43.62
74230;BME280;62589;12.568;99.958;2023-04-09T05:13:21;101064.28;;;38.07;46.04
74230;BME280;62589;12.568;99.958;2023-04-09T05:15:48;101061.25;;;37.94;45.27
74230;BME280;62589;12.568;99.958;2023-04-09T05:18:15;101046.03;;;37.92;43.59
74230;BME280;62589;12.568;99.958;2023-04-09T05:20:41;101049.59;;;37.96;43.41
74230;BME280;62589;12.568;99.958;2023-04-09T05:23:08;101043.94;;;38.03;43.43
74230;BME280;62589;12.568;99.958;2023-04-09T05:25:38;101051.25;;;37.93;42.58
74230;BME280;62589;12.568;99.958;2023-04-09T05:28:04;101048.84;;;37.92;42.84
74230;BME280;62589;12.568;99.958;2023-04-09T05:30:31;101035.28;;;37.87;45.97
74230;BME280;62589;12.568;99.958;2023-04-09T05:32:57;101044.88;;;37.89;45.27
74230;BME280;62589;12.568;99.958;2023-04-09T05:35:23;101034.00;;;37.95;45.20
74230;BME280;62589;12.568;99.958;2023-04-09T05:37:50;101044.19;;;37.81;46.66
74230;BME280;62589;12.568;99.958;2023-04-09T05:40:16;101037.16;;;37.59;45.92
74230;BME280;62589;12.568;99.958;2023-04-09T05:42:43;101027.09;;;37.65;45.53
74230;BME280;62589;12.568;99.958;2023-04-09T05:45:09;101015.63;;;37.53;44.65
74230;BME280;62589;12.568;99.958;2023-04-09T05:47:36;101023.41;;;37.75;47.57
74230;BME280;62589;12.568;99.958;2023-04-09T05:50:02;101009.84;;;37.70;43.58
74230;BME280;62589;12.568;99.958;2023-04-09T05:52:29;101016.66;;;37.69;44.40
74230;BME280;62589;12.568;99.958;2023-04-09T05:54:55;100999.06;;;37.69;45.93
74230;BME280;62589;12.568;99.958;2023-04-09T05:57:21;100995.59;;;37.92;45.79
74230;BME280;62589;12.568;99.958;2023-04-09T05:59:48;100990.34;;;37.97;44.21
74230;BME280;62589;12.568;99.958;2023-04-09T06:02:14;100995.31;;;37.82;44.36
74230;BME280;62589;12.568;99.958;2023-04-09T06:04:40;100984.47;;;37.84;43.61
74230;BME280;62589;12.568;99.958;2023-04-09T06:07:07;100977.16;;;37.94;45.30
74230;BME280;62589;12.568;99.958;2023-04-09T06:09:33;100975.22;;;37.88;45.09
74230;BME280;62589;12.568;99.958;2023-04-09T06:12:00;100968.41;;;37.89;46.06
74230;BME280;62589;12.568;99.958;2023-04-09T06:14:27;100958.03;;;37.86;45.75
74230;BME280;62589;12.568;99.958;2023-04-09T06:16:53;100955.56;;;37.91;44.68
74230;BME280;62589;12.568;99.958;2023-04-09T06:19:20;100959.25;;;37.84;43.70
74230;BME280;62589;12.568;99.958;2023-04-09T06:33:58;100918.53;;;37.76;42.70
74230;BME280;62589;12.568;99.958;2023-04-09T06:36:25;100923.19;;;37.87;43.03
74230;BME280;62589;12.568;99.958;2023-04-09T06:38:53;100908.28;;;37.93;39.73
74230;BME280;62589;12.568;99.958;2023-04-09T06:41:20;100902.22;;;37.98;39.29
74230;BME280;62589;12.568;99.958;2023-04-09T06:43:47;100900.03;;;37.82;42.05
74230;BME280;62589;12.568;99.958;2023-04-09T06:46:17;100898.72;;;37.91;41.73
74230;BME280;62589;12.568;99.958;2023-04-09T06:48:47;100897.09;;;37.93;41.74
74230;BME280;62589;12.568;99.958;2023-04-09T06:51:14;100896.25;;;37.96;41.80
74230;BME280;62589;12.568;99.958;2023-04-09T06:53:40;100882.91;;;37.77;41.67
74230;BME280;62589;12.568;99.958;2023-04-09T06:56:07;100880.88;;;37.77;42.53
74230;BME280;62589;12.568;99.958;2023-04-09T06:58:33;100875.03;;;37.95;42.10
74230;BME280;62589;12.568;99.958;2023-04-09T07:01:00;100865.03;;;37.94;42.24
74230;BME280;62589;12.568;99.958;2023-04-09T07:03:27;100858.63;;;37.94;41.25
74230;BME280;62589;12.568;99.958;2023-04-09T07:05:54;100868.97;;;38.00;41.53
74230;BME280;62589;12.568;99.958;2023-04-09T07:08:21;100862.28;;;37.91;41.38
74230;BME280;62589;12.568;99.958;2023-04-09T07:10:48;100863.06;;;37.91;41.15
74230;BME280;62589;12.568;99.958;2023-04-09T07:13:17;100845.69;;;37.76;41.54
74230;BME280;62589;12.568;99.958;2023-04-09T07:15:46;100845.69;;;37.76;41.72
74230;BME280;62589;12.568;99.958;2023-04-09T07:18:12;100847.53;;;37.87;42.62
74230;BME280;62589;12.568;99.958;2023-04-09T07:20:39;100841.66;;;37.77;43.03
74230;BME280;62589;12.568;99.958;2023-04-09T07:25:40;100828.59;;;37.64;44.19
74230;BME280;62589;12.568;99.958;2023-04-09T07:28:07;100821.97;;;37.50;45.13
74230;BME280;62589;12.568;99.958;2023-04-09T07:30:34;100834.38;;;37.49;44.17
74230;BME280;62589;12.568;99.958;2023-04-09T07:33:00;100827.78;;;37.63;43.67
74230;BME280;62589;12.568;99.958;2023-04-09T07:35:27;100824.06;;;37.77;44.13
74230;BME280;62589;12.568;99.958;2023-04-09T07:37:53;100821.13;;;37.54;45.31
74230;BME280;62589;12.568;99.958;2023-04-09T07:40:19;100817.63;;;37.46;45.07
74230;BME280;62589;12.568;99.958;2023-04-09T07:42:46;100817.13;;;37.55;46.03
74230;BME280;62589;12.568;99.958;2023-04-09T07:45:13;100804.53;;;37.39;45.58
74230;BME280;62589;12.568;99.958;2023-04-09T07:47:39;100811.19;;;37.49;45.71
74230;BME280;62589;12.568;99.958;2023-04-09T07:50:07;100813.06;;;37.59;46.09
74230;BME280;62589;12.568;99.958;2023-04-09T07:52:33;100810.34;;;37.52;45.46
74230;BME280;62589;12.568;99.958;2023-04-09T07:55:00;100810.06;;;37.43;45.82
74230;BME280;62589;12.568;99.958;2023-04-09T07:57:26;100804.63;;;37.29;46.64
74230;BME280;62589;12.568;99.958;2023-04-09T07:59:53;100799.91;;;37.22;45.96
74230;BME280;62589;12.568;99.958;2023-04-09T08:02:20;100791.81;;;37.31;45.62
74230;BME280;62589;12.568;99.958;2023-04-09T08:04:49;100801.09;;;37.25;46.33
74230;BME280;62589;12.568;99.958;2023-04-09T08:07:16;100789.06;;;37.28;46.49
74230;BME280;62589;12.568;99.958;2023-04-09T08:09:42;100791.25;;;37.09;46.98
74230;BME280;62589;12.568;99.958;2023-04-09T08:12:08;100768.81;;;37.13;46.28
74230;BME280;62589;12.568;99.958;2023-04-09T08:14:35;100774.38;;;37.16;47.15
74230;BME280;62589;12.568;99.958;2023-04-09T08:17:02;100760.06;;;37.07;47.45
74230;BME280;62589;12.568;99.958;2023-04-09T08:19:29;100764.38;;;37.15;46.27
74230;BME280;62589;12.568;99.958;2023-04-09T08:21:55;100756.06;;;37.08;45.07
74230;BME280;62589;12.568;99.958;2023-04-09T08:24:23;100779.47;;;36.91;46.79
74230;BME280;62589;12.568;99.958;2023-04-09T08:26:49;100759.16;;;36.83;47.07
74230;BME280;62589;12.568;99.958;2023-04-09T08:29:16;100758.72;;;36.85;48.20
74230;BME280;62589;12.568;99.958;2023-04-09T08:31:42;100745.00;;;36.98;48.50
74230;BME280;62589;12.568;99.958;2023-04-09T08:34:09;100745.81;;;36.98;48.13
74230;BME280;62589;12.568;99.958;2023-04-09T08:36:35;100732.13;;;37.04;47.84
74230;BME280;62589;12.568;99.958;2023-04-09T08:39:02;100736.13;;;37.03;47.01
74230;BME280;62589;12.568;99.958;2023-04-09T08:41:29;100725.34;;;36.67;48.23
74230;BME280;62589;12.568;99.958;2023-04-09T08:43:56;100723.94;;;36.48;47.28
74230;BME280;62589;12.568;99.958;2023-04-09T08:46:23;100735.84;;;36.56;48.12
74230;BME280;62589;12.568;99.958;2023-04-09T08:48:51;100731.47;;;36.55;48.21
74230;BME280;62589;12.568;99.958;2023-04-09T08:51:19;100714.09;;;36.74;48.24
74230;BME280;62589;12.568;99.958;2023-04-09T08:53:47;100715.69;;;36.75;47.69
74230;BME280;62589;12.568;99.958;2023-04-09T08:56:17;100732.16;;;36.63;47.50
74230;BME280;62589;12.568;99.958;2023-04-09T08:58:48;100715.72;;;36.72;47.76
74230;BME280;62589;12.568;99.958;2023-04-09T09:01:29;100715.56;;;36.86;47.94
74230;BME280;62589;12.568;99.958;2023-04-09T09:04:04;100720.88;;;36.77;46.95
74230;BME280;62589;12.568;99.958;2023-04-09T09:06:33;100708.13;;;36.72;46.31
74230;BME280;62589;12.568;99.958;2023-04-09T09:11:48;100701.50;;;36.56;48.71
74230;BME280;62589;12.568;99.958;2023-04-09T09:14:18;100706.63;;;36.61;47.15
74230;BME280;62589;12.568;99.958;2023-04-09T09:17:04;100694.59;;;36.64;47.13
74230;BME280;62589;12.568;99.958;2023-04-09T09:19:35;100688.56;;;36.72;46.49
74230;BME280;62589;12.568;99.958;2023-04-09T09:22:04;100706.16;;;36.66;46.54
74230;BME280;62589;12.568;99.958;2023-04-09T09:24:31;100687.84;;;36.61;46.04
74230;BME280;62589;12.568;99.958;2023-04-09T09:27:00;100696.13;;;36.34;48.76
74230;BME280;62589;12.568;99.958;2023-04-09T09:29:27;100688.63;;;36.62;49.24
74230;BME280;62589;12.568;99.958;2023-04-09T09:31:54;100694.31;;;36.55;48.87
74230;BME280;62589;12.568;99.958;2023-04-09T09:34:22;100693.19;;;36.48;49.86
74230;BME280;62589;12.568;99.958;2023-04-09T09:36:49;100690.38;;;36.48;49.85
74230;BME280;62589;12.568;99.958;2023-04-09T09:39:19;100684.41;;;36.46;49.64
74230;BME280;62589;12.568;99.958;2023-04-09T09:41:47;100686.25;;;36.60;49.14
74230;BME280;62589;12.568;99.958;2023-04-09T09:44:30;100685.94;;;36.55;47.93
74230;BME280;62589;12.568;99.958;2023-04-09T09:46:58;100692.69;;;36.57;47.68
74230;BME280;62589;12.568;99.958;2023-04-09T09:49:24;100691.03;;;36.60;47.03
74230;BME280;62589;12.568;99.958;2023-04-09T09:51:52;100684.66;;;36.59;46.93
74230;BME280;62589;12.568;99.958;2023-04-09T09:54:24;100683.16;;;36.51;47.04
74230;BME280;62589;12.568;99.958;2023-04-09T09:56:54;100704.63;;;36.61;47.29
74230;BME280;62589;12.568;99.958;2023-04-09T09:59:29;100706.59;;;36.64;47.26
74230;BME280;62589;12.568;99.958;2023-04-09T10:01:59;100695.59;;;36.46;46.55
74230;BME280;62589;12.568;99.958;2023-04-09T10:04:33;100689.09;;;36.57;46.72
74230;BME280;62589;12.568;99.958;2023-04-09T10:07:06;100689.81;;;36.64;47.55
74230;BME280;62589;12.568;99.958;2023-04-09T10:09:41;100688.66;;;36.58;47.16
74230;BME280;62589;12.568;99.958;2023-04-09T10:12:11;100677.59;;;36.47;47.48
74230;BME280;62589;12.568;99.958;2023-04-09T10:14:39;100677.56;;;36.51;47.92
74230;BME280;62589;12.568;99.958;2023-04-09T10:17:05;100691.56;;;36.51;48.36
74230;BME280;62589;12.568;99.958;2023-04-09T10:19:37;100688.00;;;36.47;48.62
74230;BME280;62589;12.568;99.958;2023-04-09T10:22:08;100678.66;;;36.61;48.16
74230;BME280;62589;12.568;99.958;2023-04-09T10:24:35;100680.16;;;36.69;48.04
74230;BME280;62589;12.568;99.958;2023-04-09T10:27:09;100675.97;;;36.50;49.06
74230;BME280;62589;12.568;99.958;2023-04-09T10:29:45;100684.72;;;36.56;49.39
74230;BME280;62589;12.568;99.958;2023-04-09T10:32:17;100682.06;;;36.41;49.34
74230;BME280;62589;12.568;99.958;2023-04-09T10:34:45;100685.94;;;36.55;49.19
74230;BME280;62589;12.568;99.958;2023-04-09T10:37:20;100698.22;;;36.61;48.83
74230;BME280;62589;12.568;99.958;2023-04-09T10:39:47;100697.94;;;36.52;49.31
74230;BME280;62589;12.568;99.958;2023-04-09T10:42:25;100691.97;;;36.49;50.18
74230;BME280;62589;12.568;99.958;2023-04-09T10:45:08;100701.56;;;36.48;49.41
74230;BME280;62589;12.568;99.958;2023-04-09T10:47:36;100699.22;;;36.43;49.34
74230;BME280;62589;12.568;99.958;2023-04-09T10:52:57;100708.50;;;36.37;48.24
74230;BME280;62589;12.568;99.958;2023-04-09T10:55:47;100703.53;;;36.52;47.72
74230;BME280;62589;12.568;99.958;2023-04-09T10:58:15;100713.06;;;36.58;47.53
74230;BME280;62589;12.568;99.958;2023-04-09T11:00:43;100710.63;;;36.60;47.20
74230;BME280;62589;12.568;99.958;2023-04-09T11:03:22;100717.78;;;36.64;46.08
74230;BME280;62589;12.568;99.958;2023-04-09T11:06:05;100718.91;;;36.70;45.78
74230;BME280;62589;12.568;99.958;2023-04-09T11:08:34;100718.16;;;36.66;45.22
74230;BME280;62589;12.568;99.958;2023-04-09T11:11:03;100726.09;;;36.71;45.15
74230;BME280;62589;12.568;99.958;2023-04-09T11:13:30;100730.91;;;36.71;45.07
74230;BME280;62589;12.568;99.958;2023-04-09T11:15:57;100735.34;;;36.65;44.41
74230;BME280;62589;12.568;99.958;2023-04-09T11:18:27;100745.31;;;36.66;43.83
74230;BME280;62589;12.568;99.958;2023-04-09T11:20:59;100746.91;;;36.67;43.86
74230;BME280;62589;12.568;99.958;2023-04-09T11:23:26;100756.06;;;36.71;43.69
74230;BME280;62589;12.568;99.958;2023-04-09T11:25:54;100749.34;;;36.65;43.52
74230;BME280;62589;12.568;99.958;2023-04-09T11:28:21;100748.91;;;36.66;43.26
74230;BME280;62589;12.568;99.958;2023-04-09T11:30:50;100747.72;;;36.67;43.63
74230;BME280;62589;12.568;99.958;2023-04-09T11:33:17;100758.09;;;36.67;43.52
74230;BME280;62589;12.568;99.958;2023-04-09T11:35:44;100756.47;;;36.69;43.24
74230;BME280;62589;12.568;99.958;2023-04-09T11:38:11;100760.06;;;36.70;43.12
74230;BME280;62589;12.568;99.958;2023-04-09T11:40:41;100752.47;;;36.70;43.11
74230;BME280;62589;12.568;99.958;2023-04-09T11:43:13;100765.25;;;36.71;42.90
74230;BME280;62589;12.568;99.958;2023-04-09T11:45:41;100768.06;;;36.71;42.88
74230;BME280;62589;12.568;99.958;2023-04-09T11:48:08;100772.84;;;36.71;42.45
74230;BME280;62589;12.568;99.958;2023-04-09T11:50:35;100772.84;;;36.71;42.61
74230;BME280;62589;12.568;99.958;2023-04-09T11:53:15;100774.47;;;36.72;42.55
74230;BME280;62589;12.568;99.958;2023-04-09T11:55:41;100784.03;;;36.71;42.32
74230;BME280;62589;12.568;99.958;2023-04-09T11:58:10;100784.03;;;36.71;42.39
74230;BME280;62589;12.568;99.958;2023-04-09T12:00:39;100780.88;;;36.69;42.06
74230;BME280;62589;12.568;99.958;2023-04-09T12:03:06;100776.91;;;36.66;41.39
74230;BME280;62589;12.568;99.958;2023-04-09T12:05:33;100780.94;;;36.62;41.39
74230;BME280;62589;12.568;99.958;2023-04-09T12:08:02;100786.59;;;36.55;41.44
74230;BME280;62589;12.568;99.958;2023-04-09T12:10:32;100796.66;;;36.48;41.84
74230;BME280;62589;12.568;99.958;2023-04-09T12:13:09;100804.22;;;36.52;41.88
74230;BME280;62589;12.568;99.958;2023-04-09T12:15:38;100802.22;;;36.48;41.75
74230;BME280;62589;12.568;99.958;2023-04-09T12:18:11;100799.44;;;36.48;42.18
74230;BME280;62589;12.568;99.958;2023-04-09T12:20:40;100802.66;;;36.47;42.42
74230;BME280;62589;12.568;99.958;2023-04-09T12:23:11;100805.84;;;36.45;42.42
74230;BME280;62589;12.568;99.958;2023-04-09T12:25:41;100802.25;;;36.45;42.51
74230;BME280;62589;12.568;99.958;2023-04-09T12:28:11;100804.25;;;36.44;42.30
74230;BME280;62589;12.568;99.958;2023-04-09T12:30:40;100811.13;;;36.36;42.53
74230;BME280;62589;12.568;99.958;2023-04-09T12:33:06;100813.09;;;36.39;42.72
74230;BME280;62589;12.568;99.958;2023-04-09T12:35:33;100817.53;;;36.37;43.05
74230;BME280;62589;12.568;99.958;2023-04-09T12:37:59;100822.34;;;36.33;43.63
74230;BME280;62589;12.568;99.958;2023-04-09T12:40:26;100834.75;;;36.28;43.90
74230;BME280;62589;12.568;99.958;2023-04-09T12:42:53;100833.56;;;36.29;43.93
74230;BME280;62589;12.568;99.958;2023-04-09T12:45:20;100844.31;;;36.31;44.18
74230;BME280;62589;12.568;99.958;2023-04-09T13:04:00;100843.69;;;36.02;42.89
74230;BME280;62589;12.568;99.958;2023-04-09T13:06:27;100847.25;;;36.09;42.73
74230;BME280;62589;12.568;99.958;2023-04-09T13:08:53;100860.88;;;36.00;43.37
74230;BME280;62589;12.568;99.958;2023-04-09T13:11:20;100852.47;;;36.04;43.14
74230;BME280;62589;12.568;99.958;2023-04-09T13:13:46;100863.63;;;36.04;43.46
74230;BME280;62589;12.568;99.958;2023-04-09T13:16:13;100856.94;;;35.91;44.62
74230;BME280;62589;12.568;99.958;2023-04-09T13:18:39;100864.53;;;35.90;44.84
74230;BME280;62589;12.568;99.958;2023-04-09T13:21:06;100859.78;;;35.80;45.45
74230;BME280;62589;12.568;99.958;2023-04-09T13:23:32;100864.59;;;35.69;46.13
74230;BME280;62589;12.568;99.958;2023-04-09T13:25:59;100858.63;;;35.70;46.19
74230;BME280;62589;12.568;99.958;2023-04-09T13:28:26;100863.38;;;35.73;46.34
74230;BME280;62589;12.568;99.958;2023-04-09T13:30:52;100864.59;;;35.72;46.93
74230;BME280;62589;12.568;99.958;2023-04-09T13:33:18;100862.59;;;35.76;47.09
74230;BME280;62589;12.568;99.958;2023-04-09T13:35:45;100871.34;;;35.78;47.27
74230;BME280;62589;12.568;99.958;2023-04-09T13:38:12;100882.13;;;35.76;47.73
74230;BME280;62589;12.568;99.958;2023-04-09T13:40:38;100881.31;;;35.76;47.89
74230;BME280;62589;12.568;99.958;2023-04-09T13:43:05;100888.97;;;35.58;48.23
74230;BME280;62589;12.568;99.958;2023-04-09T13:45:31;100894.53;;;35.65;48.25
74230;BME280;62589;12.568;99.958;2023-04-09T13:47:58;100893.75;;;35.57;48.83
74230;BME280;62589;12.568;99.958;2023-04-09T13:50:24;100901.78;;;35.52;49.82
74230;BME280;62589;12.568;99.958;2023-04-09T13:52:51;100911.34;;;35.54;50.34
74230;BME280;62589;12.568;99.958;2023-04-09T13:55:17;100902.13;;;35.57;50.27